sensor_id;sensor_type;location;lat;lon;timestamp;temperature;humidity
5200;DHT22;2619;47.868;11.892;2023-11-21T00:00:14;7.30;99.90
5200;DHT22;2619;47.868;11.892;2023-11-21T00:02:40;7.20;99.90
5200;DHT22;2619;47.868;11.892;2023-11-21T00:05:13;7.10;99.90
5200;DHT22;2619;47.868;11.892;2023-11-21T00:07:40;7.10;99.90
5200;DHT22;2619;47.868;11.892;2023-11-21T00:10:07;7.10;99.90
5200;DHT22;2619;47.868;11.892;2023-11-21T00:12:34;7.10;99.90
5200;DHT22;2619;47.868;11.892;2023-11-21T00:15:00;7.20;99.90
5200;DHT22;2619;47.868;11.892;2023-11-21T00:17:25;7.20;99.90
5200;DHT22;2619;47.868;11.892;2023-11-21T00:19:51;7.10;99.90
5200;DHT22;2619;47.868;11.892;2023-11-21T00:22:17;7.20;99.90
5200;DHT22;2619;47.868;11.892;2023-11-21T00:24:43;7.20;99.90
5200;DHT22;2619;47.868;11.892;2023-11-21T00:27:09;7.10;99.90
5200;DHT22;2619;47.868;11.892;2023-11-21T00:29:34;7.20;99.90
5200;DHT22;2619;47.868;11.892;2023-11-21T00:32:00;7.20;99.90
5200;DHT22;2619;47.868;11.892;2023-11-21T00:34:25;7.10;99.90
5200;DHT22;2619;47.868;11.892;2023-11-21T00:36:51;7.00;99.90
5200;DHT22;2619;47.868;11.892;2023-11-21T00:39:16;6.80;99.90
5200;DHT22;2619;47.868;11.892;2023-11-21T00:41:42;6.80;99.90
5200;DHT22;2619;47.868;11.892;2023-11-21T00:44:10;6.80;99.90
5200;DHT22;2619;47.868;11.892;2023-11-21T00:46:36;6.80;99.90
5200;DHT22;2619;47.868;11.892;2023-11-21T00:49:02;6.80;99.90
5200;DHT22;2619;47.868;11.892;2023-11-21T00:51:29;6.80;99.90
5200;DHT22;2619;47.868;11.892;2023-11-21T00:53:55;6.70;99.90
5200;DHT22;2619;47.868;11.892;2023-11-21T00:56:21;6.70;99.90
5200;DHT22;2619;47.868;11.892;2023-11-21T00:58:47;6.70;99.90
5200;DHT22;2619;47.868;11.892;2023-11-21T01:01:15;6.70;99.90
5200;DHT22;2619;47.868;11.892;2023-11-21T01:03:41;6.70;99.90
5200;DHT22;2619;47.868;11.892;2023-11-21T01:06:07;6.70;99.90
5200;DHT22;2619;47.868;11.892;2023-11-21T01:08:33;6.70;99.90
5200;DHT22;2619;47.868;11.892;2023-11-21T01:10:59;6.60;99.90
5200;DHT22;2619;47.868;11.892;2023-11-21T01:13:24;6.70;99.90
5200;DHT22;2619;47.868;11.892;2023-11-21T01:15:55;6.70;99.90
5200;DHT22;2619;47.868;11.892;2023-11-21T01:18:21;6.70;99.90
5200;DHT22;2619;47.868;11.892;2023-11-21T01:20:46;6.70;99.90
5200;DHT22;2619;47.868;11.892;2023-11-21T01:23:13;6.60;99.90
5200;DHT22;2619;47.868;11.892;2023-11-21T01:25:38;6.50;99.90
5200;DHT22;2619;47.868;11.892;2023-11-21T01:28:04;6.50;99.90
5200;DHT22;2619;47.868;11.892;2023-11-21T01:30:29;6.40;99.90
5200;DHT22;2619;47.868;11.892;2023-11-21T01:32:55;6.30;99.90
5200;DHT22;2619;47.868;11.892;2023-11-21T01:35:22;6.20;99.90
5200;DHT22;2619;47.868;11.892;2023-11-21T01:37:47;6.20;99.90
5200;DHT22;2619;47.868;11.892;2023-11-21T01:40:13;6.10;99.90
5200;DHT22;2619;47.868;11.892;2023-11-21T01:42:40;6.10;99.90
5200;DHT22;2619;47.868;11.892;2023-11-21T01:45:06;6.20;99.90
5200;DHT22;2619;47.868;11.892;2023-11-21T01:47:35;6.20;99.90
5200;DHT22;2619;47.868;11.892;2023-11-21T01:50:02;6.20;99.90
5200;DHT22;2619;47.868;11.892;2023-11-21T01:52:30;6.20;99.90
5200;DHT22;2619;47.868;11.892;2023-11-21T01:54:55;6.30;99.90
5200;DHT22;2619;47.868;11.892;2023-11-21T01:57:22;6.30;99.90
5200;DHT22;2619;47.868;11.892;2023-11-21T01:59:49;6.10;99.90
5200;DHT22;2619;47.868;11.892;2023-11-21T02:02:15;6.00;99.90
5200;DHT22;2619;47.868;11.892;2023-11-21T02:04:42;6.00;99.90
5200;DHT22;2619;47.868;11.892;2023-11-21T02:07:07;6.00;99.90
5200;DHT22;2619;47.868;11.892;2023-11-21T02:09:33;5.90;99.90
5200;DHT22;2619;47.868;11.892;2023-11-21T02:12:00;5.80;99.90
5200;DHT22;2619;47.868;11.892;2023-11-21T02:14:26;5.70;99.90
5200;DHT22;2619;47.868;11.892;2023-11-21T02:16:54;5.70;99.90
5200;DHT22;2619;47.868;11.892;2023-11-21T02:19:21;5.70;99.90
5200;DHT22;2619;47.868;11.892;2023-11-21T02:21:52;5.70;99.90
5200;DHT22;2619;47.868;11.892;2023-11-21T02:24:21;5.80;99.90
5200;DHT22;2619;47.868;11.892;2023-11-21T02:26:50;5.80;99.90
5200;DHT22;2619;47.868;11.892;2023-11-21T02:29:17;5.90;99.90
5200;DHT22;2619;47.868;11.892;2023-11-21T02:31:44;5.80;99.90
5200;DHT22;2619;47.868;11.892;2023-11-21T02:34:17;5.80;99.90
5200;DHT22;2619;47.868;11.892;2023-11-21T02:36:46;5.80;99.90
5200;DHT22;2619;47.868;11.892;2023-11-21T02:39:15;5.90;99.90
5200;DHT22;2619;47.868;11.892;2023-11-21T02:41:42;5.90;99.90
5200;DHT22;2619;47.868;11.892;2023-11-21T02:44:08;5.90;99.90
5200;DHT22;2619;47.868;11.892;2023-11-21T02:46:34;5.90;99.90
5200;DHT22;2619;47.868;11.892;2023-11-21T02:49:04;5.80;99.90
5200;DHT22;2619;47.868;11.892;2023-11-21T02:51:32;5.70;99.90
5200;DHT22;2619;47.868;11.892;2023-11-21T02:53:57;5.70;99.90
5200;DHT22;2619;47.868;11.892;2023-11-21T02:56:28;5.70;99.90
5200;DHT22;2619;47.868;11.892;2023-11-21T02:58:57;5.60;99.90
5200;DHT22;2619;47.868;11.892;2023-11-21T03:01:23;5.70;99.90
5200;DHT22;2619;47.868;11.892;2023-11-21T03:03:52;5.70;99.90
5200;DHT22;2619;47.868;11.892;2023-11-21T03:06:20;5.70;99.90
5200;DHT22;2619;47.868;11.892;2023-11-21T03:08:46;5.70;99.90
5200;DHT22;2619;47.868;11.892;2023-11-21T03:11:12;5.70;99.90
5200;DHT22;2619;47.868;11.892;2023-11-21T03:13:39;5.60;99.90
5200;DHT22;2619;47.868;11.892;2023-11-21T03:16:10;5.60;99.90
5200;DHT22;2619;47.868;11.892;2023-11-21T03:18:38;5.60;99.90
5200;DHT22;2619;47.868;11.892;2023-11-21T03:21:05;5.50;99.90
5200;DHT22;2619;47.868;11.892;2023-11-21T03:23:31;5.60;99.90
5200;DHT22;2619;47.868;11.892;2023-11-21T03:25:57;5.60;99.90
5200;DHT22;2619;47.868;11.892;2023-11-21T03:28:23;5.60;99.90
5200;DHT22;2619;47.868;11.892;2023-11-21T03:30:49;5.60;99.90
5200;DHT22;2619;47.868;11.892;2023-11-21T03:33:15;5.60;99.90
5200;DHT22;2619;47.868;11.892;2023-11-21T03:35:40;5.60;99.90
5200;DHT22;2619;47.868;11.892;2023-11-21T03:38:07;5.70;99.90
5200;DHT22;2619;47.868;11.892;2023-11-21T03:40:33;5.80;99.90
5200;DHT22;2619;47.868;11.892;2023-11-21T03:42:58;5.80;99.90
5200;DHT22;2619;47.868;11.892;2023-11-21T03:45:24;5.80;99.90
5200;DHT22;2619;47.868;11.892;2023-11-21T03:47:50;5.80;99.90
5200;DHT22;2619;47.868;11.892;2023-11-21T03:50:15;5.80;99.90
5200;DHT22;2619;47.868;11.892;2023-11-21T03:52:41;5.90;99.90
5200;DHT22;2619;47.868;11.892;2023-11-21T03:55:08;6.00;99.90
5200;DHT22;2619;47.868;11.892;2023-11-21T03:57:33;6.10;99.90
5200;DHT22;2619;47.868;11.892;2023-11-21T03:59:59;6.10;99.90
5200;DHT22;2619;47.868;11.892;2023-11-21T04:02:24;6.00;99.90
5200;DHT22;2619;47.868;11.892;2023-11-21T04:04:51;6.00;99.90
5200;DHT22;2619;47.868;11.892;2023-11-21T04:07:17;6.00;99.90
5200;DHT22;2619;47.868;11.892;2023-11-21T04:09:43;5.90;99.90
5200;DHT22;2619;47.868;11.892;2023-11-21T04:12:08;5.90;99.90
5200;DHT22;2619;47.868;11.892;2023-11-21T04:14:35;5.80;99.90
5200;DHT22;2619;47.868;11.892;2023-11-21T04:17:00;5.80;99.90
5200;DHT22;2619;47.868;11.892;2023-11-21T04:19:26;5.80;99.90
5200;DHT22;2619;47.868;11.892;2023-11-21T04:21:51;5.90;99.90
5200;DHT22;2619;47.868;11.892;2023-11-21T04:24:17;5.80;99.90
5200;DHT22;2619;47.868;11.892;2023-11-21T04:26:44;5.90;99.90
5200;DHT22;2619;47.868;11.892;2023-11-21T04:29:09;5.90;99.90
5200;DHT22;2619;47.868;11.892;2023-11-21T04:31:35;5.90;99.90
5200;DHT22;2619;47.868;11.892;2023-11-21T04:34:00;5.80;99.90
5200;DHT22;2619;47.868;11.892;2023-11-21T04:36:26;5.80;99.90
5200;DHT22;2619;47.868;11.892;2023-11-21T04:38:52;5.80;99.90
5200;DHT22;2619;47.868;11.892;2023-11-21T04:41:17;5.70;99.90
5200;DHT22;2619;47.868;11.892;2023-11-21T04:43:43;5.70;99.90
5200;DHT22;2619;47.868;11.892;2023-11-21T04:46:09;5.70;99.90
5200;DHT22;2619;47.868;11.892;2023-11-21T04:48:34;5.70;99.90
5200;DHT22;2619;47.868;11.892;2023-11-21T04:51:00;5.70;99.90
5200;DHT22;2619;47.868;11.892;2023-11-21T04:53:26;5.70;99.90
5200;DHT22;2619;47.868;11.892;2023-11-21T04:55:51;5.70;99.90
5200;DHT22;2619;47.868;11.892;2023-11-21T04:58:17;5.70;99.90
5200;DHT22;2619;47.868;11.892;2023-11-21T05:00:43;5.80;99.90
5200;DHT22;2619;47.868;11.892;2023-11-21T05:03:09;5.70;99.90
5200;DHT22;2619;47.868;11.892;2023-11-21T05:05:35;5.70;99.90
5200;DHT22;2619;47.868;11.892;2023-11-21T05:08:00;5.70;99.90
5200;DHT22;2619;47.868;11.892;2023-11-21T05:10:27;5.60;99.90
5200;DHT22;2619;47.868;11.892;2023-11-21T05:12:52;5.60;99.90
5200;DHT22;2619;47.868;11.892;2023-11-21T05:15:18;5.60;99.90
5200;DHT22;2619;47.868;11.892;2023-11-21T05:17:44;5.60;99.90
5200;DHT22;2619;47.868;11.892;2023-11-21T05:20:11;5.70;99.90
5200;DHT22;2619;47.868;11.892;2023-11-21T05:22:38;5.70;99.90
5200;DHT22;2619;47.868;11.892;2023-11-21T05:25:05;5.70;99.90
5200;DHT22;2619;47.868;11.892;2023-11-21T05:27:32;5.60;99.90
5200;DHT22;2619;47.868;11.892;2023-11-21T05:29:58;5.70;99.90
5200;DHT22;2619;47.868;11.892;2023-11-21T05:32:24;5.70;99.90
5200;DHT22;2619;47.868;11.892;2023-11-21T05:34:50;5.70;99.90
5200;DHT22;2619;47.868;11.892;2023-11-21T05:37:15;5.70;99.90
5200;DHT22;2619;47.868;11.892;2023-11-21T05:39:41;5.70;99.90
5200;DHT22;2619;47.868;11.892;2023-11-21T05:42:06;5.70;99.90
5200;DHT22;2619;47.868;11.892;2023-11-21T05:44:34;5.80;99.90
5200;DHT22;2619;47.868;11.892;2023-11-21T05:47:00;5.70;99.90
5200;DHT22;2619;47.868;11.892;2023-11-21T05:49:25;5.80;99.90
5200;DHT22;2619;47.868;11.892;2023-11-21T05:51:53;5.80;99.90
5200;DHT22;2619;47.868;11.892;2023-11-21T05:54:19;5.90;99.90
5200;DHT22;2619;47.868;11.892;2023-11-21T05:56:46;5.90;99.90
5200;DHT22;2619;47.868;11.892;2023-11-21T05:59:12;5.90;99.90
5200;DHT22;2619;47.868;11.892;2023-11-21T06:01:37;5.90;99.90
5200;DHT22;2619;47.868;11.892;2023-11-21T06:04:04;5.90;99.90
5200;DHT22;2619;47.868;11.892;2023-11-21T06:06:30;5.90;99.90
5200;DHT22;2619;47.868;11.892;2023-11-21T06:08:57;5.90;99.90
5200;DHT22;2619;47.868;11.892;2023-11-21T06:11:22;6.00;99.90
5200;DHT22;2619;47.868;11.892;2023-11-21T06:13:48;6.00;99.90
5200;DHT22;2619;47.868;11.892;2023-11-21T06:16:15;6.00;99.90
5200;DHT22;2619;47.868;11.892;2023-11-21T06:18:42;6.00;99.90
5200;DHT22;2619;47.868;11.892;2023-11-21T06:21:12;6.00;99.90
5200;DHT22;2619;47.868;11.892;2023-11-21T06:23:38;6.00;99.90
5200;DHT22;2619;47.868;11.892;2023-11-21T06:26:04;5.90;99.90
5200;DHT22;2619;47.868;11.892;2023-11-21T06:28:31;5.90;99.90
5200;DHT22;2619;47.868;11.892;2023-11-21T06:30:57;6.00;99.90
5200;DHT22;2619;47.868;11.892;2023-11-21T06:33:33;6.00;99.90
5200;DHT22;2619;47.868;11.892;2023-11-21T06:35:59;6.00;99.90
5200;DHT22;2619;47.868;11.892;2023-11-21T06:38:25;6.10;99.90
5200;DHT22;2619;47.868;11.892;2023-11-21T06:40:53;6.10;99.90
5200;DHT22;2619;47.868;11.892;2023-11-21T06:43:20;6.20;99.90
5200;DHT22;2619;47.868;11.892;2023-11-21T06:45:47;6.20;99.90
5200;DHT22;2619;47.868;11.892;2023-11-21T06:48:12;6.20;99.90
5200;DHT22;2619;47.868;11.892;2023-11-21T06:50:38;6.20;99.90
5200;DHT22;2619;47.868;11.892;2023-11-21T06:53:04;6.30;99.90
5200;DHT22;2619;47.868;11.892;2023-11-21T06:55:32;6.30;99.90
5200;DHT22;2619;47.868;11.892;2023-11-21T06:57:58;6.30;99.90
5200;DHT22;2619;47.868;11.892;2023-11-21T07:00:25;6.30;99.90
5200;DHT22;2619;47.868;11.892;2023-11-21T07:02:53;6.30;99.90
5200;DHT22;2619;47.868;11.892;2023-11-21T07:05:20;6.30;99.90
5200;DHT22;2619;47.868;11.892;2023-11-21T07:07:47;6.40;99.90
5200;DHT22;2619;47.868;11.892;2023-11-21T07:10:13;6.40;99.90
5200;DHT22;2619;47.868;11.892;2023-11-21T07:12:39;6.40;99.90
5200;DHT22;2619;47.868;11.892;2023-11-21T07:15:06;6.40;99.90
5200;DHT22;2619;47.868;11.892;2023-11-21T07:17:37;6.40;99.90
5200;DHT22;2619;47.868;11.892;2023-11-21T07:20:03;6.40;99.90
5200;DHT22;2619;47.868;11.892;2023-11-21T07:22:29;6.50;99.90
5200;DHT22;2619;47.868;11.892;2023-11-21T07:24:55;6.50;99.90
5200;DHT22;2619;47.868;11.892;2023-11-21T07:27:22;6.60;99.90
5200;DHT22;2619;47.868;11.892;2023-11-21T07:29:47;6.70;99.90
5200;DHT22;2619;47.868;11.892;2023-11-21T07:32:14;6.70;99.90
5200;DHT22;2619;47.868;11.892;2023-11-21T07:34:40;6.70;99.90
5200;DHT22;2619;47.868;11.892;2023-11-21T07:37:06;6.80;99.90
5200;DHT22;2619;47.868;11.892;2023-11-21T07:39:32;6.90;99.90
5200;DHT22;2619;47.868;11.892;2023-11-21T07:41:57;6.90;99.90
5200;DHT22;2619;47.868;11.892;2023-11-21T07:44:23;7.00;99.90
5200;DHT22;2619;47.868;11.892;2023-11-21T07:46:49;7.10;99.90
5200;DHT22;2619;47.868;11.892;2023-11-21T07:49:15;7.10;99.90
5200;DHT22;2619;47.868;11.892;2023-11-21T07:51:43;7.20;99.90
5200;DHT22;2619;47.868;11.892;2023-11-21T07:54:09;7.30;99.90
5200;DHT22;2619;47.868;11.892;2023-11-21T07:56:35;7.30;99.90
5200;DHT22;2619;47.868;11.892;2023-11-21T07:59:01;7.30;99.90
5200;DHT22;2619;47.868;11.892;2023-11-21T08:01:26;7.40;99.90
5200;DHT22;2619;47.868;11.892;2023-11-21T08:03:53;7.40;99.90
5200;DHT22;2619;47.868;11.892;2023-11-21T08:06:23;7.30;99.90
5200;DHT22;2619;47.868;11.892;2023-11-21T08:08:49;7.20;99.90
5200;DHT22;2619;47.868;11.892;2023-11-21T08:11:14;7.00;99.90
5200;DHT22;2619;47.868;11.892;2023-11-21T08:13:40;7.00;99.90
5200;DHT22;2619;47.868;11.892;2023-11-21T08:16:06;7.10;99.90
5200;DHT22;2619;47.868;11.892;2023-11-21T08:18:32;7.10;99.90
5200;DHT22;2619;47.868;11.892;2023-11-21T08:20:59;7.20;99.90
5200;DHT22;2619;47.868;11.892;2023-11-21T08:23:26;7.20;99.90
5200;DHT22;2619;47.868;11.892;2023-11-21T08:25:52;7.20;99.90
5200;DHT22;2619;47.868;11.892;2023-11-21T08:28:18;7.20;99.90
5200;DHT22;2619;47.868;11.892;2023-11-21T08:30:44;7.20;99.90
5200;DHT22;2619;47.868;11.892;2023-11-21T08:33:09;7.10;99.90
5200;DHT22;2619;47.868;11.892;2023-11-21T08:35:37;7.10;99.90
5200;DHT22;2619;47.868;11.892;2023-11-21T08:38:03;7.10;99.90
5200;DHT22;2619;47.868;11.892;2023-11-21T08:40:29;7.10;99.90
5200;DHT22;2619;47.868;11.892;2023-11-21T08:42:55;7.10;99.90
5200;DHT22;2619;47.868;11.892;2023-11-21T08:45:21;7.20;99.90
5200;DHT22;2619;47.868;11.892;2023-11-21T08:47:47;7.20;99.90
5200;DHT22;2619;47.868;11.892;2023-11-21T08:50:13;7.40;99.90
5200;DHT22;2619;47.868;11.892;2023-11-21T08:52:40;7.40;99.90
5200;DHT22;2619;47.868;11.892;2023-11-21T08:55:07;7.60;99.90
5200;DHT22;2619;47.868;11.892;2023-11-21T08:57:38;7.70;99.90
5200;DHT22;2619;47.868;11.892;2023-11-21T09:00:05;7.90;99.90
5200;DHT22;2619;47.868;11.892;2023-11-21T09:02:38;8.10;99.90
5200;DHT22;2619;47.868;11.892;2023-11-21T09:05:05;8.30;99.90
5200;DHT22;2619;47.868;11.892;2023-11-21T09:07:31;8.40;99.90
5200;DHT22;2619;47.868;11.892;2023-11-21T09:09:57;8.50;99.90
5200;DHT22;2619;47.868;11.892;2023-11-21T09:12:23;8.50;99.90
5200;DHT22;2619;47.868;11.892;2023-11-21T09:14:50;8.60;99.90
5200;DHT22;2619;47.868;11.892;2023-11-21T09:17:16;8.80;99.90
5200;DHT22;2619;47.868;11.892;2023-11-21T09:19:41;9.00;99.90
5200;DHT22;2619;47.868;11.892;2023-11-21T09:22:08;9.00;99.90
5200;DHT22;2619;47.868;11.892;2023-11-21T09:24:34;9.00;99.90
5200;DHT22;2619;47.868;11.892;2023-11-21T09:27:00;9.20;99.90
5200;DHT22;2619;47.868;11.892;2023-11-21T09:29:26;9.20;99.90
5200;DHT22;2619;47.868;11.892;2023-11-21T09:31:52;9.20;99.90
5200;DHT22;2619;47.868;11.892;2023-11-21T09:34:20;9.10;99.90
5200;DHT22;2619;47.868;11.892;2023-11-21T09:36:46;9.20;99.90
5200;DHT22;2619;47.868;11.892;2023-11-21T09:39:12;9.10;99.90
5200;DHT22;2619;47.868;11.892;2023-11-21T09:41:55;9.00;99.90
5200;DHT22;2619;47.868;11.892;2023-11-21T09:47:23;9.00;99.90
5200;DHT22;2619;47.868;11.892;2023-11-21T09:49:48;9.00;99.90
5200;DHT22;2619;47.868;11.892;2023-11-21T09:52:26;8.90;99.90
5200;DHT22;2619;47.868;11.892;2023-11-21T09:54:53;8.90;99.90
5200;DHT22;2619;47.868;11.892;2023-11-21T09:57:24;9.00;99.90
5200;DHT22;2619;47.868;11.892;2023-11-21T09:59:51;8.90;99.90
5200;DHT22;2619;47.868;11.892;2023-11-21T10:02:22;8.90;99.90
5200;DHT22;2619;47.868;11.892;2023-11-21T10:04:51;8.80;99.90
5200;DHT22;2619;47.868;11.892;2023-11-21T10:07:18;8.80;99.90
5200;DHT22;2619;47.868;11.892;2023-11-21T10:09:44;8.80;99.90
5200;DHT22;2619;47.868;11.892;2023-11-21T10:12:11;8.80;99.90
5200;DHT22;2619;47.868;11.892;2023-11-21T10:14:41;8.80;99.90
5200;DHT22;2619;47.868;11.892;2023-11-21T10:17:08;8.80;99.90
5200;DHT22;2619;47.868;11.892;2023-11-21T10:19:35;8.90;99.90
5200;DHT22;2619;47.868;11.892;2023-11-21T10:22:02;9.00;99.90
5200;DHT22;2619;47.868;11.892;2023-11-21T10:24:30;9.10;99.90
5200;DHT22;2619;47.868;11.892;2023-11-21T10:26:55;9.00;99.90
5200;DHT22;2619;47.868;11.892;2023-11-21T10:29:21;9.10;99.90
5200;DHT22;2619;47.868;11.892;2023-11-21T10:31:50;9.20;99.90
5200;DHT22;2619;47.868;11.892;2023-11-21T10:34:17;9.40;99.90
5200;DHT22;2619;47.868;11.892;2023-11-21T10:36:43;9.60;99.90
5200;DHT22;2619;47.868;11.892;2023-11-21T10:39:09;9.80;99.90
5200;DHT22;2619;47.868;11.892;2023-11-21T10:41:35;9.80;99.90
5200;DHT22;2619;47.868;11.892;2023-11-21T10:44:02;9.80;99.90
5200;DHT22;2619;47.868;11.892;2023-11-21T10:46:32;9.90;99.90
5200;DHT22;2619;47.868;11.892;2023-11-21T10:48:59;9.60;99.90
5200;DHT22;2619;47.868;11.892;2023-11-21T10:51:25;9.70;99.90
5200;DHT22;2619;47.868;11.892;2023-11-21T10:53:54;9.60;99.90
5200;DHT22;2619;47.868;11.892;2023-11-21T10:56:23;9.60;99.90
5200;DHT22;2619;47.868;11.892;2023-11-21T10:58:49;9.50;99.90
5200;DHT22;2619;47.868;11.892;2023-11-21T11:01:18;9.50;99.90
5200;DHT22;2619;47.868;11.892;2023-11-21T11:03:44;9.60;99.90
5200;DHT22;2619;47.868;11.892;2023-11-21T11:06:10;9.60;99.90
5200;DHT22;2619;47.868;11.892;2023-11-21T11:08:38;9.60;99.90
5200;DHT22;2619;47.868;11.892;2023-11-21T11:11:07;9.70;99.90
5200;DHT22;2619;47.868;11.892;2023-11-21T11:13:35;9.70;99.90
5200;DHT22;2619;47.868;11.892;2023-11-21T11:16:01;9.70;99.90
5200;DHT22;2619;47.868;11.892;2023-11-21T11:18:30;9.60;99.90
5200;DHT22;2619;47.868;11.892;2023-11-21T11:21:25;9.70;99.90
5200;DHT22;2619;47.868;11.892;2023-11-21T11:26:54;9.80;99.90
5200;DHT22;2619;47.868;11.892;2023-11-21T11:32:26;9.80;99.90
5200;DHT22;2619;47.868;11.892;2023-11-21T11:35:19;9.80;99.90
5200;DHT22;2619;47.868;11.892;2023-11-21T11:37:49;9.70;99.90
5200;DHT22;2619;47.868;11.892;2023-11-21T11:40:15;9.70;99.90
5200;DHT22;2619;47.868;11.892;2023-11-21T11:42:56;9.80;99.90
5200;DHT22;2619;47.868;11.892;2023-11-21T11:45:31;9.80;99.90
5200;DHT22;2619;47.868;11.892;2023-11-21T11:47:57;9.90;99.90
5200;DHT22;2619;47.868;11.892;2023-11-21T11:50:23;9.80;99.90
5200;DHT22;2619;47.868;11.892;2023-11-21T11:52:52;9.70;99.90
5200;DHT22;2619;47.868;11.892;2023-11-21T11:55:19;9.80;99.90
5200;DHT22;2619;47.868;11.892;2023-11-21T11:57:53;9.80;99.90
5200;DHT22;2619;47.868;11.892;2023-11-21T12:02:57;9.60;99.90
5200;DHT22;2619;47.868;11.892;2023-11-21T12:05:24;9.90;99.90
5200;DHT22;2619;47.868;11.892;2023-11-21T12:07:53;10.00;99.90
5200;DHT22;2619;47.868;11.892;2023-11-21T12:10:23;10.30;99.90
5200;DHT22;2619;47.868;11.892;2023-11-21T12:15:19;10.40;99.90
5200;DHT22;2619;47.868;11.892;2023-11-21T12:17:46;10.60;99.90
5200;DHT22;2619;47.868;11.892;2023-11-21T12:20:13;10.50;99.90
5200;DHT22;2619;47.868;11.892;2023-11-21T12:22:50;10.30;99.90
5200;DHT22;2619;47.868;11.892;2023-11-21T12:25:21;10.10;99.90
5200;DHT22;2619;47.868;11.892;2023-11-21T12:27:48;10.10;99.90
5200;DHT22;2619;47.868;11.892;2023-11-21T12:30:15;10.10;99.90
5200;DHT22;2619;47.868;11.892;2023-11-21T12:32:48;10.10;99.90
5200;DHT22;2619;47.868;11.892;2023-11-21T12:35:14;10.10;99.90
5200;DHT22;2619;47.868;11.892;2023-11-21T12:37:41;10.10;99.90
5200;DHT22;2619;47.868;11.892;2023-11-21T12:40:10;10.40;99.90
5200;DHT22;2619;47.868;11.892;2023-11-21T12:42:42;10.60;99.90
5200;DHT22;2619;47.868;11.892;2023-11-21T12:45:08;10.70;99.90
5200;DHT22;2619;47.868;11.892;2023-11-21T12:47:35;10.70;99.90
5200;DHT22;2619;47.868;11.892;2023-11-21T12:50:02;10.80;99.90
5200;DHT22;2619;47.868;11.892;2023-11-21T12:52:28;10.90;99.90
5200;DHT22;2619;47.868;11.892;2023-11-21T12:54:54;11.10;99.90
5200;DHT22;2619;47.868;11.892;2023-11-21T12:57:25;11.20;99.90
5200;DHT22;2619;47.868;11.892;2023-11-21T12:59:57;11.20;99.90
5200;DHT22;2619;47.868;11.892;2023-11-21T13:02:25;11.20;99.90
5200;DHT22;2619;47.868;11.892;2023-11-21T13:04:54;11.20;99.90
5200;DHT22;2619;47.868;11.892;2023-11-21T13:07:23;11.00;99.90
5200;DHT22;2619;47.868;11.892;2023-11-21T13:09:52;10.80;99.90
5200;DHT22;2619;47.868;11.892;2023-11-21T13:12:24;10.60;99.90
5200;DHT22;2619;47.868;11.892;2023-11-21T13:14:50;10.40;99.90
5200;DHT22;2619;47.868;11.892;2023-11-21T13:17:17;10.40;99.90
5200;DHT22;2619;47.868;11.892;2023-11-21T13:19:42;10.20;99.90
5200;DHT22;2619;47.868;11.892;2023-11-21T13:22:08;10.20;99.90
5200;DHT22;2619;47.868;11.892;2023-11-21T13:24:36;10.20;99.90
5200;DHT22;2619;47.868;11.892;2023-11-21T13:27:02;10.30;99.90
5200;DHT22;2619;47.868;11.892;2023-11-21T13:29:28;10.40;99.90
5200;DHT22;2619;47.868;11.892;2023-11-21T13:31:55;10.40;99.90
5200;DHT22;2619;47.868;11.892;2023-11-21T13:34:20;10.30;99.90
5200;DHT22;2619;47.868;11.892;2023-11-21T13:36:47;10.30;99.90
5200;DHT22;2619;47.868;11.892;2023-11-21T13:39:13;10.50;99.90
5200;DHT22;2619;47.868;11.892;2023-11-21T13:41:41;10.50;99.90
5200;DHT22;2619;47.868;11.892;2023-11-21T13:44:07;10.50;99.90
5200;DHT22;2619;47.868;11.892;2023-11-21T13:46:51;10.60;99.90
5200;DHT22;2619;47.868;11.892;2023-11-21T13:49:17;10.60;99.90
5200;DHT22;2619;47.868;11.892;2023-11-21T13:51:43;10.60;99.90
5200;DHT22;2619;47.868;11.892;2023-11-21T13:54:16;10.60;99.90
5200;DHT22;2619;47.868;11.892;2023-11-21T13:56:42;10.60;99.90
5200;DHT22;2619;47.868;11.892;2023-11-21T13:59:10;10.40;99.90
5200;DHT22;2619;47.868;11.892;2023-11-21T14:01:53;10.40;99.90
5200;DHT22;2619;47.868;11.892;2023-11-21T14:04:19;10.50;99.90
5200;DHT22;2619;47.868;11.892;2023-11-21T14:06:51;10.40;99.90
5200;DHT22;2619;47.868;11.892;2023-11-21T14:09:21;10.50;99.90
5200;DHT22;2619;47.868;11.892;2023-11-21T14:11:51;10.50;99.90
5200;DHT22;2619;47.868;11.892;2023-11-21T14:14:18;10.50;99.90
5200;DHT22;2619;47.868;11.892;2023-11-21T14:16:44;10.40;99.90
5200;DHT22;2619;47.868;11.892;2023-11-21T14:19:10;10.60;99.90
5200;DHT22;2619;47.868;11.892;2023-11-21T14:21:41;10.70;99.90
5200;DHT22;2619;47.868;11.892;2023-11-21T14:24:11;10.70;99.90
5200;DHT22;2619;47.868;11.892;2023-11-21T14:26:39;10.80;99.90
5200;DHT22;2619;47.868;11.892;2023-11-21T14:29:05;10.70;99.90
5200;DHT22;2619;47.868;11.892;2023-11-21T14:31:31;10.80;99.90
5200;DHT22;2619;47.868;11.892;2023-11-21T14:33:57;10.80;99.90
5200;DHT22;2619;47.868;11.892;2023-11-21T14:36:23;10.60;99.90
5200;DHT22;2619;47.868;11.892;2023-11-21T14:38:49;10.60;99.90
5200;DHT22;2619;47.868;11.892;2023-11-21T14:41:15;10.40;99.90
5200;DHT22;2619;47.868;11.892;2023-11-21T14:43:40;10.30;99.90
5200;DHT22;2619;47.868;11.892;2023-11-21T14:46:07;10.10;99.90
5200;DHT22;2619;47.868;11.892;2023-11-21T14:48:35;9.90;99.90
5200;DHT22;2619;47.868;11.892;2023-11-21T14:51:13;9.60;99.90
5200;DHT22;2619;47.868;11.892;2023-11-21T14:53:53;9.30;99.90
5200;DHT22;2619;47.868;11.892;2023-11-21T14:56:23;9.10;99.90
5200;DHT22;2619;47.868;11.892;2023-11-21T14:58:56;8.90;99.90
5200;DHT22;2619;47.868;11.892;2023-11-21T15:01:25;8.70;99.90
5200;DHT22;2619;47.868;11.892;2023-11-21T15:04:11;8.50;99.90
5200;DHT22;2619;47.868;11.892;2023-11-21T15:07:03;8.30;99.90
5200;DHT22;2619;47.868;11.892;2023-11-21T15:09:29;8.20;99.90
5200;DHT22;2619;47.868;11.892;2023-11-21T15:11:59;8.10;99.90
5200;DHT22;2619;47.868;11.892;2023-11-21T15:14:49;8.00;99.90
5200;DHT22;2619;47.868;11.892;2023-11-21T15:17:19;7.90;99.90
5200;DHT22;2619;47.868;11.892;2023-11-21T15:19:52;7.80;99.90
5200;DHT22;2619;47.868;11.892;2023-11-21T15:22:17;7.80;99.90
5200;DHT22;2619;47.868;11.892;2023-11-21T15:24:43;7.70;99.90
5200;DHT22;2619;47.868;11.892;2023-11-21T15:27:12;7.70;99.90
5200;DHT22;2619;47.868;11.892;2023-11-21T15:29:43;7.60;99.90
5200;DHT22;2619;47.868;11.892;2023-11-21T15:32:10;7.60;99.90
5200;DHT22;2619;47.868;11.892;2023-11-21T15:34:37;7.60;99.90
5200;DHT22;2619;47.868;11.892;2023-11-21T15:37:04;7.60;99.90
5200;DHT22;2619;47.868;11.892;2023-11-21T15:39:31;7.60;99.90
5200;DHT22;2619;47.868;11.892;2023-11-21T15:41:57;7.60;99.90
5200;DHT22;2619;47.868;11.892;2023-11-21T15:44:24;7.60;99.90
5200;DHT22;2619;47.868;11.892;2023-11-21T15:46:51;7.50;99.90
5200;DHT22;2619;47.868;11.892;2023-11-21T15:49:17;7.40;99.90
5200;DHT22;2619;47.868;11.892;2023-11-21T15:51:47;7.40;99.90
5200;DHT22;2619;47.868;11.892;2023-11-21T15:54:18;7.30;99.90
5200;DHT22;2619;47.868;11.892;2023-11-21T15:56:45;7.20;99.90
5200;DHT22;2619;47.868;11.892;2023-11-21T15:59:11;7.20;99.90
5200;DHT22;2619;47.868;11.892;2023-11-21T16:01:37;7.20;99.90
5200;DHT22;2619;47.868;11.892;2023-11-21T16:04:09;7.10;99.90
5200;DHT22;2619;47.868;11.892;2023-11-21T16:06:36;7.10;99.90
5200;DHT22;2619;47.868;11.892;2023-11-21T16:09:05;7.00;99.90
5200;DHT22;2619;47.868;11.892;2023-11-21T16:11:31;7.00;99.90
5200;DHT22;2619;47.868;11.892;2023-11-21T16:13:59;6.90;99.90